createdAt,value
2022-09-11T00:02:09.998Z,3.55
2022-09-11T00:09:05.209Z,3.80
2022-09-11T00:12:27.856Z,13.20
2022-09-11T00:15:44.327Z,5.65
2022-09-11T00:18:56.886Z,3.25
2022-09-11T00:22:21.470Z,3.45
2022-09-11T00:25:42.405Z,3.10
2022-09-11T00:29:07.395Z,3.03
2022-09-11T00:32:28.517Z,2.70
2022-09-11T00:35:40.311Z,3.30
2022-09-11T00:38:52.501Z,2.78
2022-09-11T00:45:44.944Z,3.28
2022-09-11T00:52:42.351Z,3.33
2022-09-11T00:55:59.880Z,3.28
2022-09-11T00:59:21.537Z,3.25
2022-09-11T01:02:35.901Z,3.93
2022-09-11T01:05:49.024Z,3.88
2022-09-11T01:09:00.621Z,3.40
2022-09-11T01:12:18.526Z,3.28
2022-09-11T01:15:35.230Z,3.13
2022-09-11T01:18:53.778Z,3.60
2022-09-11T01:23:07.482Z,3.00
2022-09-11T01:26:50.266Z,3.20
2022-09-11T01:30:12.532Z,3.33
2022-09-11T01:33:29.105Z,3.10
2022-09-11T01:36:48.368Z,3.08
2022-09-11T01:40:06.827Z,2.80
2022-09-11T01:43:23.597Z,2.78
2022-09-11T01:46:39.139Z,3.28
2022-09-11T01:49:56.127Z,3.30
2022-09-11T01:53:12.381Z,3.50
2022-09-11T01:56:30.497Z,3.10
2022-09-11T01:59:47.858Z,3.08
2022-09-11T02:03:04.765Z,3.60
2022-09-11T02:06:25.642Z,3.68
2022-09-11T02:09:44.236Z,3.80
2022-09-11T02:13:02.724Z,4.00
2022-09-11T02:16:20.773Z,3.83
2022-09-11T02:19:34.415Z,4.00
2022-09-11T02:22:46.895Z,4.03
2022-09-11T02:25:58.426Z,4.58
2022-09-11T02:29:10.622Z,4.70
2022-09-11T02:32:22.781Z,4.68
2022-09-11T02:35:40.746Z,4.33
2022-09-11T02:39:02.064Z,4.80
2022-09-11T02:42:28.858Z,4.68
2022-09-11T02:45:52.401Z,4.33
2022-09-11T02:49:12.587Z,3.70
2022-09-11T02:52:33.072Z,3.45
2022-09-11T02:55:57.784Z,3.33
2022-09-11T02:59:17.288Z,3.55
2022-09-11T03:02:36.418Z,3.03
2022-09-11T03:05:57.895Z,3.60
2022-09-11T03:09:18.757Z,3.70
2022-09-11T03:12:31.789Z,3.80
2022-09-11T03:15:43.519Z,3.55
2022-09-11T03:18:56.015Z,3.50
2022-09-11T03:22:09.837Z,3.05
2022-09-11T03:25:23.361Z,3.10
2022-09-11T03:32:17.929Z,2.85
2022-09-11T03:35:32.092Z,2.98
2022-09-11T03:38:56.937Z,3.10
2022-09-11T03:42:10.991Z,3.25
2022-09-11T03:45:25.528Z,3.48
2022-09-11T03:48:37.729Z,2.48
2022-09-11T03:51:49.321Z,2.85
2022-09-11T03:55:00.914Z,3.28
2022-09-11T03:58:13.126Z,3.45
2022-09-11T04:01:26.903Z,2.90
2022-09-11T04:04:50.734Z,3.48
2022-09-11T04:08:03.108Z,2.80
2022-09-11T04:11:16.641Z,2.65
2022-09-11T04:14:29.038Z,3.15
2022-09-11T04:17:44.641Z,3.53
2022-09-11T04:21:08.377Z,3.40
2022-09-11T04:24:20.250Z,3.50
2022-09-11T04:31:12.684Z,3.50
2022-09-11T04:34:26.263Z,3.43
2022-09-11T04:37:48.814Z,3.20
2022-09-11T04:44:43.680Z,2.93
2022-09-11T04:51:39.337Z,2.78
2022-09-11T04:54:51.750Z,3.10
2022-09-11T04:58:14.143Z,3.90
2022-09-11T05:01:26.752Z,4.73
2022-09-11T05:04:42.216Z,4.58
2022-09-11T05:08:07.994Z,5.18
2022-09-11T05:11:23.899Z,4.53
2022-09-11T05:14:38.044Z,4.08
2022-09-11T05:21:32.004Z,3.73
2022-09-11T05:24:53.805Z,4.35
2022-09-11T05:32:01.685Z,3.83
2022-09-11T05:35:15.260Z,3.80
2022-09-11T05:42:10.810Z,3.45
2022-09-11T05:45:26.762Z,3.10
2022-09-11T05:52:20.047Z,3.23
2022-09-11T05:55:34.993Z,4.58
2022-09-11T05:58:59.675Z,4.40
2022-09-11T06:02:15.066Z,5.10
2022-09-11T06:05:28.785Z,5.35
2022-09-11T06:08:44.212Z,7.10
2022-09-11T06:11:56.531Z,6.28
2022-09-11T06:18:51.450Z,5.88
2022-09-11T06:22:14.164Z,6.35
2022-09-11T06:25:36.751Z,7.10
2022-09-11T06:28:57.590Z,7.08
2022-09-11T06:36:04.934Z,10.80
2022-09-11T06:43:00.398Z,10.80
2022-09-11T06:46:15.956Z,10.05
2022-09-11T06:49:28.407Z,10.85
2022-09-11T06:53:00.891Z,11.35
2022-09-11T06:56:19.431Z,12.97
2022-09-11T07:03:12.806Z,14.15
2022-09-11T07:06:43.116Z,12.60
2022-09-11T07:09:55.958Z,10.78
2022-09-11T07:27:55.411Z,4.40
2022-09-11T07:31:20.617Z,3.50
2022-09-11T07:34:31.396Z,3.95
2022-09-11T08:38:26.674Z,4.78
2022-09-11T08:41:48.295Z,4.60
2022-09-11T08:45:19.881Z,5.45
2022-09-11T08:48:43.553Z,4.83
2022-09-11T08:51:57.615Z,6.25
2022-09-11T08:55:13.917Z,5.20
2022-09-11T08:58:31.458Z,4.58
2022-09-11T09:01:49.727Z,3.18
2022-09-11T09:05:18.454Z,2.70
2022-09-11T09:17:50.925Z,4.20
2022-09-11T09:21:09.408Z,3.08
2022-09-11T09:28:43.460Z,2.70
2022-09-11T09:35:26.947Z,2.60
2022-09-11T09:43:19.246Z,3.70
2022-09-11T09:46:40.579Z,3.80
2022-09-11T09:54:11.674Z,4.20
2022-09-11T10:01:55.376Z,3.50
2022-09-11T10:05:34.848Z,3.53
2022-09-11T10:17:48.145Z,3.88
2022-09-11T10:29:32.167Z,3.78
2022-09-11T10:39:48.250Z,4.65
2022-09-11T11:03:24.013Z,3.30
2022-09-11T11:38:30.048Z,3.70
2022-09-11T11:46:03.891Z,3.50
2022-09-11T11:54:03.880Z,6.15
2022-09-11T11:57:22.322Z,5.20
2022-09-11T12:00:55.438Z,6.25
2022-09-11T12:04:14.510Z,3.68
2022-09-11T12:07:33.435Z,6.20
2022-09-11T12:15:07.639Z,3.73
2022-09-11T12:25:03.391Z,3.45
2022-09-11T12:41:26.564Z,4.95
2022-09-11T12:44:50.352Z,3.30
2022-09-11T12:51:30.295Z,5.03
2022-09-11T12:54:46.420Z,4.80
2022-09-11T13:03:03.189Z,3.83
2022-09-11T13:06:33.558Z,5.83
2022-09-11T13:10:04.899Z,2.20
2022-09-11T13:14:09.950Z,2.70
2022-09-11T13:17:30.478Z,3.50
2022-09-11T13:24:34.553Z,2.70
2022-09-11T13:31:52.359Z,3.35
2022-09-11T13:35:11.036Z,2.85
2022-09-11T13:55:26.997Z,4.83
2022-09-11T14:07:57.749Z,3.60
2022-09-11T14:11:15.377Z,4.40
2022-09-11T14:15:04.915Z,3.75
2022-09-11T14:19:00.237Z,3.75
2022-09-11T14:22:31.025Z,4.75
2022-09-11T14:30:11.377Z,13.28
2022-09-11T14:33:29.854Z,4.00
2022-09-11T14:45:20.001Z,4.37
2022-09-11T14:52:45.797Z,3.40
2022-09-11T15:03:57.045Z,3.15
2022-09-11T15:07:19.736Z,3.50
2022-09-11T15:10:33.053Z,2.85
2022-09-11T15:14:15.888Z,2.45
2022-09-11T15:17:22.557Z,7.15
2022-09-11T15:24:16.085Z,2.45
2022-09-11T15:31:08.160Z,2.60
2022-09-11T15:34:30.810Z,2.25
2022-09-11T15:37:42.468Z,3.83
2022-09-11T15:41:00.595Z,2.40
2022-09-11T15:44:20.007Z,2.83
2022-09-11T15:51:20.271Z,2.68
2022-09-11T15:54:44.831Z,3.50
2022-09-11T15:57:58.566Z,2.93
2022-09-11T16:08:45.124Z,3.93
2022-09-11T16:12:05.158Z,5.38
2022-09-11T16:15:18.644Z,4.30
2022-09-11T16:18:43.041Z,3.58
2022-09-11T16:21:56.413Z,3.03
2022-09-11T16:25:08.943Z,3.25
2022-09-11T16:28:31.533Z,4.03
2022-09-11T16:35:34.174Z,3.75
2022-09-11T16:39:01.336Z,3.50
2022-09-11T16:45:58.848Z,4.43
2022-09-11T16:49:14.266Z,3.63
2022-09-11T16:52:26.314Z,4.75
2022-09-11T16:55:46.572Z,3.78
2022-09-11T16:59:00.585Z,4.00
2022-09-11T17:02:15.126Z,4.18
2022-09-11T17:05:35.689Z,4.48
2022-09-11T17:12:12.581Z,4.08
2022-09-11T17:15:28.630Z,3.78
2022-09-11T17:22:31.626Z,3.73
2022-09-11T17:25:46.730Z,3.73
2022-09-11T17:29:01.184Z,3.88
2022-09-11T17:32:29.070Z,4.08
2022-09-11T17:35:35.220Z,4.43
2022-09-11T17:38:49.682Z,4.05
2022-09-11T17:42:01.867Z,3.70
2022-09-11T17:45:16.269Z,3.98
2022-09-11T17:48:28.143Z,3.73
2022-09-11T17:51:51.811Z,4.00
2022-09-11T17:55:04.375Z,4.50
2022-09-11T17:58:16.277Z,4.33
2022-09-11T18:01:30.515Z,4.90
2022-09-11T18:04:43.906Z,5.30
2022-09-11T18:08:07.486Z,5.18
2022-09-11T18:11:19.506Z,5.03
2022-09-11T18:14:31.349Z,5.08
2022-09-11T18:17:43.367Z,5.08
2022-09-11T18:20:56.576Z,5.03
2022-09-11T18:24:12.120Z,5.10
2022-09-11T18:27:33.903Z,4.50
2022-09-11T18:30:56.027Z,4.88
2022-09-11T18:34:08.803Z,3.98
2022-09-11T18:37:22.107Z,3.60
2022-09-11T18:44:04.179Z,3.50
2022-09-11T18:47:28.873Z,3.55
2022-09-11T18:50:42.710Z,4.80
2022-09-11T18:53:57.162Z,3.70
2022-09-11T18:57:13.581Z,3.60
2022-09-11T19:00:29.013Z,2.80
2022-09-11T19:03:53.077Z,3.20
2022-09-11T19:07:14.911Z,3.25
2022-09-11T19:10:26.892Z,3.05
2022-09-11T19:17:26.539Z,2.93
2022-09-11T19:20:38.261Z,3.15
2022-09-11T19:23:53.646Z,3.35
2022-09-11T19:27:14.101Z,2.95
2022-09-11T19:30:25.933Z,2.75
2022-09-11T19:33:54.802Z,3.03
2022-09-11T19:37:07.955Z,3.00
2022-09-11T19:40:22.232Z,3.38
2022-09-11T19:47:16.912Z,3.43
2022-09-11T19:50:31.546Z,3.00
2022-09-11T19:53:44.427Z,3.38
2022-09-11T19:56:57.190Z,3.95
2022-09-11T20:00:24.050Z,3.60
2022-09-11T20:03:36.856Z,2.88
2022-09-11T20:10:00.649Z,3.60
2022-09-11T20:13:22.440Z,3.95
2022-09-11T20:16:36.810Z,3.73
2022-09-11T20:20:02.056Z,3.63
2022-09-11T20:23:28.301Z,3.45
2022-09-11T20:26:41.165Z,3.55
2022-09-11T20:30:02.453Z,3.53
2022-09-11T20:33:17.102Z,3.55
2022-09-11T20:36:30.125Z,3.60
2022-09-11T20:39:42.745Z,3.40
2022-09-11T20:42:54.598Z,3.90
2022-09-11T20:46:14.005Z,3.75
2022-09-11T20:49:37.687Z,3.48
2022-09-11T20:52:51.093Z,4.50
2022-09-11T20:56:09.127Z,3.88
2022-09-11T20:59:21.527Z,4.18
2022-09-11T21:02:41.911Z,4.48
2022-09-11T21:05:53.699Z,4.28
2022-09-11T21:09:08.611Z,4.95
2022-09-11T21:12:27.525Z,4.48
2022-09-11T21:15:39.204Z,4.80
2022-09-11T21:18:57.214Z,4.90
2022-09-11T21:22:20.046Z,5.40
2022-09-11T21:29:15.653Z,5.43
2022-09-11T21:32:28.860Z,5.80
2022-09-11T21:35:41.449Z,6.10
2022-09-11T21:39:00.233Z,6.30
2022-09-11T21:45:52.949Z,6.03
2022-09-11T21:49:05.002Z,5.90
2022-09-11T21:52:17.054Z,5.85
2022-09-11T21:55:28.720Z,6.13
2022-09-11T21:58:40.689Z,5.60
2022-09-11T22:01:52.462Z,5.70
2022-09-11T22:05:04.291Z,5.08
2022-09-11T22:08:18.670Z,5.40
2022-09-11T22:11:30.533Z,5.70
2022-09-11T22:14:44.450Z,5.80
2022-09-11T22:21:36.844Z,5.30
2022-09-11T22:24:50.511Z,5.80
2022-09-11T22:28:01.998Z,6.20
2022-09-11T22:31:16.346Z,6.18
2022-09-11T22:34:28.933Z,5.93
2022-09-11T22:37:40.717Z,5.95
2022-09-11T22:40:57.440Z,5.98
2022-09-11T22:44:09.714Z,5.88
2022-09-11T22:47:21.299Z,5.88
2022-09-11T22:50:33.032Z,5.70
2022-09-11T22:53:44.814Z,5.90
2022-09-11T22:56:56.633Z,5.93
2022-09-11T23:00:22.774Z,6.35
2022-09-11T23:03:34.609Z,5.88
2022-09-11T23:07:00.701Z,6.63
2022-09-11T23:10:13.868Z,6.38
2022-09-11T23:13:25.382Z,6.35
2022-09-11T23:16:36.852Z,6.15
2022-09-11T23:19:48.793Z,6.10
2022-09-11T23:23:00.508Z,6.20
2022-09-11T23:26:12.556Z,6.13
2022-09-11T23:29:24.049Z,6.25
2022-09-11T23:36:18.182Z,6.23
2022-09-11T23:39:30.157Z,5.80
2022-09-11T23:42:41.803Z,6.25
2022-09-11T23:45:53.398Z,5.80
2022-09-11T23:49:06.297Z,6.25
2022-09-11T23:52:18.100Z,6.93
2022-09-11T23:55:29.546Z,7.70
2022-09-11T23:58:41.273Z,7.68
